Time;durP1;ratioP1;P1;durP2;ratioP2;P2;SDS_P1;SDS_P2;PMS_P1;PMS_P2;Temp;Humidity;BMP_temperature;BMP_pressure;BME280_temperature;BME280_humidity;BME280_pressure;Samples;Min_cycle;Max_cycle;Signal;HPM_P1;HPM_P2
2022/08/12 00:43:26;;;;;;;;;;;;;;;;;;5076266;28;19965;-79
2022/08/12 00:48:39;;;;;;;;;;;;;;;;;;5078966;28;20555;-79
2022/08/12 00:51:06;;;;;;;;;;;;;;;;;;5079430;28;20133;-79
2022/08/12 00:53:33;;;;;;;;;;;;;;;;;;5079763;28;20444;-79
2022/08/12 00:56:00;;;;;;;;;;;;;;;;;;5079806;28;20007;-79
2022/08/12 00:58:28;;;;;;;;;;;;;;;;;;5080145;28;19956;-79
2022/08/12 01:00:58;;;;;;;;;;;;;;;;;;5088949;28;19975;-79
2022/08/12 01:03:26;;;;;;;;;;;;;;;;;;5093795;28;19995;-79
2022/08/12 01:11:30;;;;;;;;;;;;;;;;;;5083617;28;19931;-80
2022/08/12 01:13:58;;;;;;;;;;;;;;;;;;5083609;28;19931;-80
2022/08/12 01:16:25;;;;;;;;;;;;;;;;;;5084082;28;19951;-79
2022/08/12 01:18:53;;;;;;;;;;;;;;;;;;5082457;28;19968;-79
2022/08/12 01:21:40;;;;;;;;;;;;;;;;;;5086223;28;20397;-79
2022/08/12 01:24:12;;;;;;;;;;;;;;;;;;5087268;28;19956;-79
2022/08/12 01:26:41;;;;;;;;;;;;;;;;;;5070301;28;19925;-80
2022/08/12 01:29:10;;;;;;;;;;;;;;;;;;5063209;28;20008;-80
2022/08/12 01:31:37;;;;;;;;;;;;;;;;;;5071924;28;19928;-81
2022/08/12 01:34:05;;;;;;;;;;;;;;;;;;5082903;28;19925;-79
2022/08/12 01:36:36;;;;;;;;;;;;;;;;;;5082569;28;20041;-80
2022/08/12 01:39:03;;;;;;;;;;;;;;;;;;5081903;28;19925;-82
2022/08/12 01:41:30;;;;;;;;;;;;;;;;;;5082728;28;19924;-80
2022/08/12 01:44:01;;;;;;;;;;;;;;;;;;5101206;28;19928;-81
2022/08/12 01:46:36;;;;;;;;;;;;;;;;;;5082825;28;19925;-79
2022/08/12 01:49:06;;;;;;;;;;;;;;;;;;5076697;28;20024;-80
2022/08/12 01:51:41;;;;;;;;;;;;;;;;;;5076486;28;19931;-79
2022/08/12 01:54:09;;;;;;;;;;;;;;;;;;5098573;28;20298;-78
2022/08/12 01:56:42;;;;;;;;;;;;;;;;;;5090526;28;19925;-79
2022/08/12 02:01:59;;;;;;;;;;;;;;;;;;5072029;28;19954;-80
2022/08/12 02:13:00;;;;;;;;;;;;;;;;;;5092571;28;19997;-80
2022/08/12 02:15:37;;;;;;;;;;;;;;;;;;5098804;28;19924;-79
2022/08/12 02:18:09;;;;;;;;;;;;;;;;;;5084465;28;19956;-79
2022/08/12 02:20:38;;;;;;;;;;;;;;;;;;5098945;28;19924;-78
2022/08/12 02:23:06;;;;;;;;;;;;;;;;;;5080997;28;19924;-79
2022/08/12 02:25:33;;;;;;;;;;;;;;;;;;5079819;28;19963;-80
2022/08/12 02:28:00;;;;;;;;;;;;;;;;;;5079257;28;20463;-79
2022/08/12 02:30:30;;;;;;;;;;;;;;;;;;5080733;28;20291;-81
2022/08/12 02:32:57;;;;;;;;;;;;;;;;;;5082077;28;19932;-80
2022/08/12 02:35:25;;;;;;;;;;;;;;;;;;5081493;28;19925;-79
2022/08/12 02:37:53;;;;;;;;;;;;;;;;;;5079413;28;19936;-80
2022/08/12 02:40:19;;;;;;;;;;;;;;;;;;5078770;28;20019;-80
2022/08/12 02:42:50;;;;;;;;;;;;;;;;;;5080248;28;19968;-79
2022/08/12 02:45:21;;;;;;;;;;;;;;;;;;5100575;28;19924;-81
2022/08/12 02:47:49;;;;;;;;;;;;;;;;;;5080656;28;19924;-79
2022/08/12 02:50:19;;;;;;;;;;;;;;;;;;5079876;28;19976;-80
2022/08/12 02:52:46;;;;;;;;;;;;;;;;;;5080891;28;19928;-81
2022/08/12 02:55:17;;;;;;;;;;;;;;;;;;5085007;28;19925;-81
2022/08/12 02:57:45;;;;;;;;;;;;;;;;;;5080805;28;19968;-80
2022/08/12 03:00:12;;;;;;;;;;;;;;;;;;5080231;28;20461;-79
2022/08/12 03:02:40;;;;;;;;;;;;;;;;;;5076565;28;19978;-81
2022/08/12 03:05:11;;;;;;;;;;;;;;;;;;5077068;28;19963;-80
2022/08/12 03:07:43;;;;;;;;;;;;;;;;;;5079828;28;19924;-81
2022/08/12 03:10:11;;;;;;;;;;;;;;;;;;5084812;28;19925;-80
2022/08/12 03:12:38;;;;;;;;;;;;;;;;;;5085086;28;19999;-81
2022/08/12 03:15:08;;;;;;;;;;;;;;;;;;5083997;28;19971;-80
2022/08/12 03:17:38;;;;;;;;;;;;;;;;;;5084813;28;19928;-81
2022/08/12 03:20:05;;;;;;;;;;;;;;;;;;5096196;28;19943;-81
2022/08/12 03:22:33;;;;;;;;;;;;;;;;;;5083271;28;20427;-81
2022/08/12 03:25:03;;;;;;;;;;;;;;;;;;5093016;28;20446;-81
2022/08/12 03:27:30;;;;;;;;;;;;;;;;;;5083647;28;19986;-81
2022/08/12 03:29:57;;;;;;;;;;;;;;;;;;5080250;28;19932;-80
2022/08/12 03:32:24;;;;;;;;;;;;;;;;;;5081772;28;19972;-81
2022/08/12 03:34:53;;;;;;;;;;;;;;;;;;5082839;28;19928;-81
2022/08/12 03:37:20;;;;;;;;;;;;;;;;;;5080045;28;19976;-81
2022/08/12 03:39:48;;;;;;;;;;;;;;;;;;5080692;28;20351;-81
2022/08/12 03:42:20;;;;;;;;;;;;;;;;;;5071926;28;19970;-81
2022/08/12 04:01:24;;;;;;;;;;;;;;;;;;5090580;28;20618;-79
2022/08/12 04:03:53;;;;;;;;;;;;;;;;;;5077769;28;19925;-80
2022/08/12 04:06:20;;;;;;;;;;;;;;;;;;5088224;28;20012;-80
2022/08/12 04:08:48;;;;;;;;;;;;;;;;;;5095092;28;19932;-80
2022/08/12 04:14:07;;;;;;;;;;;;;;;;;;5079657;28;20006;-82
2022/08/12 04:16:34;;;;;;;;;;;;;;;;;;5091877;28;19955;-80
2022/08/12 04:19:01;;;;;;;;;;;;;;;;;;5081087;28;19959;-79
2022/08/12 04:21:27;;;;;;;;;;;;;;;;;;5080479;28;19987;-81
2022/08/12 04:23:54;;;;;;;;;;;;;;;;;;5094761;28;19915;-81
2022/08/12 04:26:22;;;;;;;;;;;;;;;;;;5088182;28;19924;-80
2022/08/12 04:28:49;;;;;;;;;;;;;;;;;;5075959;28;19964;-80
2022/08/12 04:31:15;;;;;;;;;;;;;;;;;;5076505;28;19963;-80
2022/08/12 04:33:42;;;;;;;;;;;;;;;;;;5078641;28;19963;-80
2022/08/12 04:36:09;;;;;;;;;;;;;;;;;;5082384;28;20378;-82
2022/08/12 04:38:35;;;;;;;;;;;;;;;;;;5086119;28;20309;-79
2022/08/12 04:41:02;;;;;;;;;;;;;;;;;;5079317;28;19924;-80
2022/08/12 04:43:30;;;;;;;;;;;;;;;;;;5082224;28;19963;-81
2022/08/12 04:45:56;;;;;;;;;;;;;;;;;;5083866;28;20019;-80
2022/08/12 04:48:23;;;;;;;;;;;;;;;;;;5080828;28;19931;-80
2022/08/12 04:50:49;;;;;;;;;;;;;;;;;;5080896;28;19964;-79
2022/08/12 04:53:16;;;;;;;;;;;;;;;;;;5069167;28;19925;-80
2022/08/12 04:55:44;;;;;;;;;;;;;;;;;;5077523;28;20351;-80
2022/08/12 04:58:12;;;;;;;;;;;;;;;;;;5102309;22;19932;-65
2022/08/12 05:00:40;;;;;;;;;;;;;;;;;;5059164;28;20024;-66
2022/08/12 05:03:07;;;;;;;;;;;;;;;;;;5059482;28;19943;-68
2022/08/12 05:05:34;;;;;;;;;;;;;;;;;;5060365;28;20381;-66
2022/08/12 05:08:01;;;;;;;;;;;;;;;;;;5058595;28;20454;-66
2022/08/12 05:10:27;;;;;;;;;;;;;;;;;;5061835;28;20552;-66
2022/08/12 05:12:55;;;;;;;;;;;;;;;;;;5058799;28;19925;-66
2022/08/12 05:15:22;;;;;;;;;;;;;;;;;;5059552;28;20007;-66
2022/08/12 05:17:50;;;;;;;;;;;;;;;;;;5056729;28;19925;-66
2022/08/12 05:20:18;;;;;;;;;;;;;;;;;;5060858;28;19986;-66
2022/08/12 05:22:45;;;;;;;;;;;;;;;;;;5059693;28;20357;-66
2022/08/12 05:25:12;;;;;;;;;;;;;;;;;;5059380;28;20385;-66
2022/08/12 05:27:38;;;;;;;;;;;;;;;;;;5060292;28;19929;-66
2022/08/12 05:30:06;;;;;;;;;;;;;;;;;;5057979;28;19932;-66
2022/08/12 05:32:32;;;;;;;;;;;;;;;;;;5059841;28;20043;-66
2022/08/12 05:35:05;;;;;;;;;;;;;;;;;;5058394;28;19932;-66
2022/08/12 05:37:32;;;;;;;;;;;;;;;;;;5060464;28;19929;-67
2022/08/12 05:39:58;;;;;;;;;;;;;;;;;;5061225;28;20032;-66
2022/08/12 05:42:25;;;;;;;;;;;;;;;;;;5061633;28;19924;-67
2022/08/12 05:44:51;;;;;;;;;;;;;;;;;;5059248;28;19939;-66
2022/08/12 05:47:18;;;;;;;;;;;;;;;;;;5059298;28;19936;-65
2022/08/12 05:49:44;;;;;;;;;;;;;;;;;;5058615;28;19925;-66
2022/08/12 05:52:12;;;;;;;;;;;;;;;;;;5058438;28;19986;-65
2022/08/12 05:54:43;;;;;;;;;;;;;;;;;;5065037;28;20309;-66
2022/08/12 05:57:11;;;;;;;;;;;;;;;;;;5056329;28;19931;-65
2022/08/12 05:59:38;;;;;;;;;;;;;;;;;;5054096;28;20623;-66
2022/08/12 06:02:06;;;;;;;;;;;;;;;;;;5061198;28;20377;-66
2022/08/12 06:04:33;;;;;;;;;;;;;;;;;;5057289;28;20312;-66
2022/08/12 06:07:01;;;;;;;;;;;;;;;;;;5062455;28;19925;-65
2022/08/12 06:09:29;;;;;;;;;;;;;;;;;;5056724;28;19928;-66
2022/08/12 06:11:56;;;;;;;;;;;;;;;;;;5055513;28;19924;-66
2022/08/12 06:14:22;;;;;;;;;;;;;;;;;;5062626;28;20412;-66
2022/08/12 06:16:50;;;;;;;;;;;;;;;;;;5056725;28;19951;-66
2022/08/12 06:19:17;;;;;;;;;;;;;;;;;;5060552;28;19982;-66
2022/08/12 06:21:47;;;;;;;;;;;;;;;;;;5060520;28;19932;-65
2022/08/12 06:24:14;;;;;;;;;;;;;;;;;;5065303;28;19978;-65
2022/08/12 06:26:42;;;;;;;;;;;;;;;;;;5057519;28;19939;-65
2022/08/12 06:29:08;;;;;;;;;;;;;;;;;;5057875;28;20341;-66
2022/08/12 06:31:37;;;;;;;;;;;;;;;;;;5060337;28;19994;-65
2022/08/12 06:34:04;;;;;;;;;;;;;;;;;;5058684;28;20288;-65
2022/08/12 06:36:32;;;;;;;;;;;;;;;;;;5059577;28;20604;-67
2022/08/12 06:38:58;;;;;;;;;;;;;;;;;;5058451;28;20019;-63
2022/08/12 06:44:19;;;;;;;;;;;;;;;;;;5059909;28;20006;-66
2022/08/12 06:46:46;;;;;;;;;;;;;;;;;;5056639;28;20025;-66
2022/08/12 06:49:13;;;;;;;;;;;;;;;;;;5059093;28;19933;-65
2022/08/12 06:51:39;;;;;;;;;;;;;;;;;;5057572;28;19955;-64
2022/08/12 06:54:09;;;;;;;;;;;;;;;;;;5057189;28;19925;-66
2022/08/12 06:56:35;;;;;;;;;;;;;;;;;;5056549;28;20370;-64
2022/08/12 06:59:02;;;;;;;;;;;;;;;;;;5043617;28;20348;-65
2022/08/12 07:01:30;;;;;;;;;;;;;;;;;;5058519;28;20285;-65
2022/08/12 07:03:57;;;;;;;;;;;;;;;;;;5052781;28;19924;-65
2022/08/12 07:06:24;;;;;;;;;;;;;;;;;;5053148;28;19933;-65
2022/08/12 07:08:50;;;;;;;;;;;;;;;;;;5052535;28;19925;-65
2022/08/12 07:11:17;;;;;;;;;;;;;;;;;;5052141;28;19925;-66
2022/08/12 07:13:44;;;;;;;;;;;;;;;;;;5052984;28;19925;-65
2022/08/12 07:16:12;;;;;;;;;;;;;;;;;;5052782;28;19924;-66
2022/08/12 07:18:41;;;;;;;;;;;;;;;;;;5053073;28;20414;-64
2022/08/12 07:21:08;;;;;;;;;;;;;;;;;;5051823;28;19929;-66
2022/08/12 07:23:35;;;;;;;;;;;;;;;;;;5049472;28;19967;-65
2022/08/12 07:26:03;;;;;;;;;;;;;;;;;;5055644;28;20294;-65
2022/08/12 07:28:32;;;;;;;;;;;;;;;;;;5048260;28;19929;-64
2022/08/12 07:30:59;;;;;;;;;;;;;;;;;;5047525;28;20012;-65
2022/08/12 07:33:27;;;;;;;;;;;;;;;;;;5041479;28;20414;-65
2022/08/12 07:35:56;;;;;;;;;;;;;;;;;;5043536;28;20423;-65
2022/08/12 07:38:24;;;;;;;;;;;;;;;;;;5044627;28;20180;-65
2022/08/12 07:40:52;;;;;;;;;;;;;;;;;;5048858;28;20368;-66
2022/08/12 07:43:19;;;;;;;;;;;;;;;;;;5054269;28;19990;-65
2022/08/12 07:45:46;;;;;;;;;;;;;;;;;;5050920;28;19928;-65
2022/08/12 07:48:13;;;;;;;;;;;;;;;;;;5050349;28;19925;-65
2022/08/12 07:50:39;;;;;;;;;;;;;;;;;;5041439;28;19973;-66
2022/08/12 07:53:07;;;;;;;;;;;;;;;;;;5041203;28;19929;-65
2022/08/12 07:55:35;;;;;;;;;;;;;;;;;;5036313;28;19971;-69
2022/08/12 07:58:01;;;;;;;;;;;;;;;;;;5030945;28;19948;-67
2022/08/12 08:00:29;;;;;;;;;;;;;;;;;;5043312;28;19987;-67
2022/08/12 08:02:57;;;;;;;;;;;;;;;;;;5049139;28;19936;-66
2022/08/12 08:05:25;;;;;;;;;;;;;;;;;;5050473;28;20469;-65
2022/08/12 08:07:52;;;;;;;;;;;;;;;;;;5050312;28;19932;-67
2022/08/12 08:10:20;;;;;;;;;;;;;;;;;;5057659;28;19972;-68
2022/08/12 08:12:57;;;;;;;;;;;;;;;;;;5069927;28;19928;-68
2022/08/12 08:15:25;;;;;;;;;;;;;;;;;;5061766;28;20333;-68
2022/08/12 08:18:01;;;;;;;;;;;;;;;;;;5051240;28;20344;-68
2022/08/12 08:20:29;;;;;;;;;;;;;;;;;;5051484;28;20402;-67
2022/08/12 08:22:56;;;;;;;;;;;;;;;;;;5053282;28;19925;-66
2022/08/12 08:25:29;;;;;;;;;;;;;;;;;;5054627;28;20330;-65
2022/08/12 08:27:56;;;;;;;;;;;;;;;;;;5046111;28;19925;-65
2022/08/12 08:30:23;;;;;;;;;;;;;;;;;;5050027;28;19940;-64
2022/08/12 08:32:50;;;;;;;;;;;;;;;;;;5053217;28;19948;-66
2022/08/12 08:35:16;;;;;;;;;;;;;;;;;;5053786;28;20008;-66
2022/08/12 08:37:45;;;;;;;;;;;;;;;;;;5053515;28;19962;-66
2022/08/12 08:42:59;;;;;;;;;;;;;;;;;;5035630;28;19932;-63
2022/08/12 08:45:27;;;;;;;;;;;;;;;;;;5054080;28;20340;-63
2022/08/12 08:47:53;;;;;;;;;;;;;;;;;;5053737;28;19924;-64
2022/08/12 08:50:20;;;;;;;;;;;;;;;;;;5053188;28;19932;-63
2022/08/12 08:52:47;;;;;;;;;;;;;;;;;;5053270;28;19924;-64
2022/08/12 08:55:15;;;;;;;;;;;;;;;;;;5053349;28;20431;-63
2022/08/12 08:57:42;;;;;;;;;;;;;;;;;;5051695;28;19929;-65
2022/08/12 09:00:13;;;;;;;;;;;;;;;;;;5052306;28;20017;-65
2022/08/12 09:02:39;;;;;;;;;;;;;;;;;;5055618;28;19929;-65
2022/08/12 09:05:07;;;;;;;;;;;;;;;;;;5072718;28;19925;-65
2022/08/12 09:07:42;;;;;;;;;;;;;;;;;;5048397;28;19987;-65
2022/08/12 09:10:08;;;;;;;;;;;;;;;;;;5032597;28;19925;-65
2022/08/12 09:15:20;;;;;;;;;;;;;;;;;;5073036;28;20619;-65
2022/08/12 09:17:51;;;;;;;;;;;;;;;;;;5072842;28;19924;-65
2022/08/12 09:20:18;;;;;;;;;;;;;;;;;;5072232;28;19975;-65
2022/08/12 09:22:44;;;;;;;;;;;;;;;;;;5057268;28;19932;-65
2022/08/12 09:25:11;;;;;;;;;;;;;;;;;;5043562;28;20009;-65
2022/08/12 09:27:38;;;;;;;;;;;;;;;;;;5041318;28;19995;-65
2022/08/12 09:30:05;;;;;;;;;;;;;;;;;;5046216;28;19924;-65
2022/08/12 09:32:33;;;;;;;;;;;;;;;;;;5044079;28;19925;-65
2022/08/12 09:34:59;;;;;;;;;;;;;;;;;;5043178;28;20316;-65
2022/08/12 09:37:27;;;;;;;;;;;;;;;;;;5041112;28;19933;-65
2022/08/12 09:39:53;;;;;;;;;;;;;;;;;;5040945;28;19978;-65
2022/08/12 09:45:23;;;;;;;;;;;;;;;;;;5056274;28;19932;-65
2022/08/12 09:47:51;;;;;;;;;;;;;;;;;;5032417;28;19925;-65
2022/08/12 09:50:18;;;;;;;;;;;;;;;;;;5031581;28;20307;-65
2022/08/12 09:52:45;;;;;;;;;;;;;;;;;;5031759;28;19948;-65
2022/08/12 09:55:12;;;;;;;;;;;;;;;;;;5031969;28;19933;-65
2022/08/12 09:57:38;;;;;;;;;;;;;;;;;;5031874;28;20314;-65
2022/08/12 10:00:05;;;;;;;;;;;;;;;;;;5032395;28;20273;-64
2022/08/12 10:02:37;;;;;;;;;;;;;;;;;;5051713;28;19956;-65
2022/08/12 10:05:08;;;;;;;;;;;;;;;;;;5052019;28;19925;-66
2022/08/12 10:07:35;;;;;;;;;;;;;;;;;;5051903;28;19924;-66
2022/08/12 10:10:01;;;;;;;;;;;;;;;;;;5051302;28;20322;-66
2022/08/12 10:15:13;;;;;;;;;;;;;;;;;;5052026;28;19947;-65
2022/08/12 10:17:40;;;;;;;;;;;;;;;;;;5052250;28;19995;-65
2022/08/12 10:20:08;;;;;;;;;;;;;;;;;;5039647;28;19925;-65
2022/08/12 10:22:35;;;;;;;;;;;;;;;;;;5047601;28;20305;-66
2022/08/12 10:30:30;;;;;;;;;;;;;;;;;;5051115;28;19985;-65
2022/08/12 10:32:58;;;;;;;;;;;;;;;;;;5051369;28;19928;-65
2022/08/12 10:35:30;;;;;;;;;;;;;;;;;;5051168;28;19928;-66
2022/08/12 10:38:00;;;;;;;;;;;;;;;;;;5051395;28;19955;-65
2022/08/12 10:40:27;;;;;;;;;;;;;;;;;;5051040;28;20355;-65
2022/08/12 10:45:38;;;;;;;;;;;;;;;;;;5050864;28;20019;-64
2022/08/12 10:48:05;;;;;;;;;;;;;;;;;;5050851;28;19924;-64
2022/08/12 10:50:34;;;;;;;;;;;;;;;;;;5036603;28;20390;-64
2022/08/12 10:53:02;;;;;;;;;;;;;;;;;;5042870;28;19968;-65
2022/08/12 10:55:29;;;;;;;;;;;;;;;;;;5044040;28;19929;-64
2022/08/12 11:00:28;;;;;;;;;;;;;;;;;;5088526;22;19924;-76
2022/08/12 11:02:55;;;;;;;;;;;;;;;;;;5062462;28;20323;-76
2022/08/12 11:05:21;;;;;;;;;;;;;;;;;;5070664;28;19932;-75
2022/08/12 11:07:50;;;;;;;;;;;;;;;;;;5070820;28;20297;-76
2022/08/12 11:10:16;;;;;;;;;;;;;;;;;;5070143;28;19936;-76
2022/08/12 11:12:44;;;;;;;;;;;;;;;;;;5070593;28;20023;-76
2022/08/12 11:15:11;;;;;;;;;;;;;;;;;;5070924;28;19925;-75
2022/08/12 11:17:40;;;;;;;;;;;;;;;;;;5070176;28;20197;-76
2022/08/12 11:20:07;;;;;;;;;;;;;;;;;;5070044;28;19929;-75
2022/08/12 11:22:33;;;;;;;;;;;;;;;;;;5070417;28;19972;-76
2022/08/12 11:25:01;;;;;;;;;;;;;;;;;;5070617;28;19970;-76
2022/08/12 11:27:27;;;;;;;;;;;;;;;;;;5070251;28;19928;-75
2022/08/12 11:29:54;;;;;;;;;;;;;;;;;;5069781;28;19924;-75
2022/08/12 11:32:20;;;;;;;;;;;;;;;;;;5070490;28;20019;-75
2022/08/12 11:34:47;;;;;;;;;;;;;;;;;;5070756;28;19964;-75
2022/08/12 11:37:13;;;;;;;;;;;;;;;;;;5070484;28;19987;-76
2022/08/12 11:39:40;;;;;;;;;;;;;;;;;;5069952;28;20011;-76
2022/08/12 11:42:07;;;;;;;;;;;;;;;;;;5070433;28;19928;-76
2022/08/12 11:44:34;;;;;;;;;;;;;;;;;;5069754;28;20023;-75
2022/08/12 11:47:00;;;;;;;;;;;;;;;;;;5069690;28;20007;-76
2022/08/12 11:49:27;;;;;;;;;;;;;;;;;;5069748;28;20434;-76
2022/08/12 11:51:54;;;;;;;;;;;;;;;;;;5070285;28;19970;-76
2022/08/12 11:54:20;;;;;;;;;;;;;;;;;;5070529;28;19924;-73
2022/08/12 11:56:47;;;;;;;;;;;;;;;;;;5071040;28;19928;-76
2022/08/12 11:59:14;;;;;;;;;;;;;;;;;;5068924;28;19976;-75
2022/08/12 12:01:41;;;;;;;;;;;;;;;;;;5071924;28;19931;-76
2022/08/12 12:04:07;;;;;;;;;;;;;;;;;;5074420;28;19960;-76
2022/08/12 12:06:34;;;;;;;;;;;;;;;;;;5079694;28;20480;-84
2022/08/12 12:09:00;;;;;;;;;;;;;;;;;;5077769;28;19929;-73
2022/08/12 12:11:27;;;;;;;;;;;;;;;;;;5074816;28;20482;-77
2022/08/12 12:13:54;;;;;;;;;;;;;;;;;;5074551;28;20003;-77
2022/08/12 12:16:22;;;;;;;;;;;;;;;;;;5075278;28;19970;-76
2022/08/12 12:18:48;;;;;;;;;;;;;;;;;;5074438;28;19963;-76
2022/08/12 12:21:15;;;;;;;;;;;;;;;;;;5073641;28;20011;-76
2022/08/12 12:23:42;;;;;;;;;;;;;;;;;;5072031;28;19980;-75
2022/08/12 12:26:08;;;;;;;;;;;;;;;;;;5062933;28;20019;-75
2022/08/12 12:28:37;;;;;;;;;;;;;;;;;;5070100;28;20493;-75
2022/08/12 12:31:04;;;;;;;;;;;;;;;;;;5072810;28;19932;-76
2022/08/12 12:33:32;;;;;;;;;;;;;;;;;;5053980;28;20025;-75
2022/08/12 12:35:58;;;;;;;;;;;;;;;;;;5053737;28;20020;-77
2022/08/12 12:38:25;;;;;;;;;;;;;;;;;;5054260;28;19979;-76
2022/08/12 12:40:51;;;;;;;;;;;;;;;;;;5055156;28;19925;-76
2022/08/12 12:43:18;;;;;;;;;;;;;;;;;;5053498;28;20019;-76
2022/08/12 12:45:45;;;;;;;;;;;;;;;;;;5053936;28;19987;-76
2022/08/12 12:48:12;;;;;;;;;;;;;;;;;;5066155;28;19931;-75
2022/08/12 12:50:41;;;;;;;;;;;;;;;;;;5072828;28;20310;-77
2022/08/12 12:53:08;;;;;;;;;;;;;;;;;;5074178;28;19960;-76
2022/08/12 12:55:36;;;;;;;;;;;;;;;;;;5074651;28;19924;-76
2022/08/12 12:58:04;;;;;;;;;;;;;;;;;;5072337;28;19939;-75
2022/08/12 13:00:31;;;;;;;;;;;;;;;;;;5072390;28;20007;-75
2022/08/12 13:02:57;;;;;;;;;;;;;;;;;;5066794;28;20568;-76
2022/08/12 13:05:25;;;;;;;;;;;;;;;;;;5075412;28;19978;-75
2022/08/12 13:07:54;;;;;;;;;;;;;;;;;;5074279;28;19924;-76
2022/08/12 13:10:21;;;;;;;;;;;;;;;;;;5068156;28;19931;-75
2022/08/12 13:12:48;;;;;;;;;;;;;;;;;;5073540;28;19979;-75
2022/08/12 13:15:15;;;;;;;;;;;;;;;;;;5069374;28;20337;-76
2022/08/12 13:17:42;;;;;;;;;;;;;;;;;;5072569;28;19928;-76
2022/08/12 13:20:09;;;;;;;;;;;;;;;;;;5065403;28;20015;-76
2022/08/12 13:22:36;;;;;;;;;;;;;;;;;;5064501;28;19924;-76
2022/08/12 13:25:04;;;;;;;;;;;;;;;;;;5058959;28;19931;-76
2022/08/12 13:27:34;;;;;;;;;;;;;;;;;;5067060;28;20448;-75
2022/08/12 13:30:02;;;;;;;;;;;;;;;;;;5061730;28;20380;-76
2022/08/12 13:32:28;;;;;;;;;;;;;;;;;;5074654;28;19970;-76
2022/08/12 13:34:55;;;;;;;;;;;;;;;;;;5070617;28;19940;-77
2022/08/12 13:37:26;;;;;;;;;;;;;;;;;;5063838;28;19925;-76
2022/08/12 13:39:53;;;;;;;;;;;;;;;;;;5057999;28;19932;-76
2022/08/12 13:42:21;;;;;;;;;;;;;;;;;;5055195;28;19972;-75
2022/08/12 13:44:51;;;;;;;;;;;;;;;;;;5063707;28;19948;-77
2022/08/12 13:47:18;;;;;;;;;;;;;;;;;;5058623;28;19935;-76
2022/08/12 13:49:48;;;;;;;;;;;;;;;;;;5059295;28;20062;-80
2022/08/12 13:52:17;;;;;;;;;;;;;;;;;;5065280;28;19956;-76
2022/08/12 13:54:45;;;;;;;;;;;;;;;;;;5065539;28;19925;-77
2022/08/12 13:57:13;;;;;;;;;;;;;;;;;;5068180;28;19932;-76
2022/08/12 13:59:43;;;;;;;;;;;;;;;;;;5065935;28;19928;-77
2022/08/12 14:02:12;;;;;;;;;;;;;;;;;;5060119;28;19924;-76
2022/08/12 14:04:39;;;;;;;;;;;;;;;;;;5052309;28;19979;-75
2022/08/12 14:07:05;;;;;;;;;;;;;;;;;;5054372;28;20407;-75
2022/08/12 14:10:34;;;;;;;;;;;;;;;;;;5066490;28;19975;-76
2022/08/12 14:12:19;;;;;;;;;;;;;;;;;;5069866;28;19924;-75
2022/08/12 14:14:49;;;;;;;;;;;;;;;;;;5064269;28;20019;-76
2022/08/12 14:17:16;;;;;;;;;;;;;;;;;;5063318;28;19967;-77
2022/08/12 14:20:12;;;;;;;;;;;;;;;;;;5071254;28;20019;-76
2022/08/12 14:22:30;;;;;;;;;;;;;;;;;;5071309;28;19925;-76
2022/08/12 14:24:57;;;;;;;;;;;;;;;;;;5071491;28;20016;-76
2022/08/12 14:27:28;;;;;;;;;;;;;;;;;;5071379;28;20295;-75
2022/08/12 14:29:56;;;;;;;;;;;;;;;;;;5062389;28;19964;-75
2022/08/12 14:32:23;;;;;;;;;;;;;;;;;;5059189;28;20003;-75
2022/08/12 14:34:51;;;;;;;;;;;;;;;;;;5067679;28;20015;-76
2022/08/12 14:37:18;;;;;;;;;;;;;;;;;;5070028;28;20020;-76
2022/08/12 14:39:45;;;;;;;;;;;;;;;;;;5070456;28;20309;-76
2022/08/12 14:42:12;;;;;;;;;;;;;;;;;;5071167;28;20517;-75
2022/08/12 14:44:39;;;;;;;;;;;;;;;;;;5069895;28;19924;-76
2022/08/12 14:47:07;;;;;;;;;;;;;;;;;;5071147;28;20011;-76
2022/08/12 14:49:34;;;;;;;;;;;;;;;;;;5070450;28;19924;-76
2022/08/12 14:52:00;;;;;;;;;;;;;;;;;;5054235;28;20016;-76
2022/08/12 14:54:27;;;;;;;;;;;;;;;;;;5050359;28;20012;-76
2022/08/12 14:56:53;;;;;;;;;;;;;;;;;;5061541;28;19930;-76
2022/08/12 15:02:04;;;;;;;;;;;;;;;;;;5070234;28;19931;-76
2022/08/12 15:04:32;;;;;;;;;;;;;;;;;;5070262;28;19978;-76
2022/08/12 15:06:58;;;;;;;;;;;;;;;;;;5064245;28;20678;-75
2022/08/12 15:09:25;;;;;;;;;;;;;;;;;;5055126;28;20435;-76
2022/08/12 15:11:51;;;;;;;;;;;;;;;;;;5050598;28;19935;-76
2022/08/12 15:14:18;;;;;;;;;;;;;;;;;;5062290;28;20660;-75
2022/08/12 15:16:44;;;;;;;;;;;;;;;;;;5069266;28;20383;-76
2022/08/12 15:19:11;;;;;;;;;;;;;;;;;;5050069;28;20003;-75
2022/08/12 15:21:39;;;;;;;;;;;;;;;;;;5052323;28;20388;-76
2022/08/12 15:24:07;;;;;;;;;;;;;;;;;;5068466;28;20014;-77
2022/08/12 15:26:37;;;;;;;;;;;;;;;;;;5090862;28;19924;-75
2022/08/12 15:29:05;;;;;;;;;;;;;;;;;;5078346;28;20016;-75
2022/08/12 15:31:32;;;;;;;;;;;;;;;;;;5069892;28;19932;-75
2022/08/12 15:33:58;;;;;;;;;;;;;;;;;;5070268;28;20606;-76
2022/08/12 15:36:25;;;;;;;;;;;;;;;;;;5069646;28;20307;-75
2022/08/12 15:38:53;;;;;;;;;;;;;;;;;;5070555;28;19972;-76
2022/08/12 15:41:21;;;;;;;;;;;;;;;;;;5069885;28;20406;-76
2022/08/12 15:43:49;;;;;;;;;;;;;;;;;;5064137;28;19931;-75
2022/08/12 15:46:15;;;;;;;;;;;;;;;;;;5066455;28;19925;-75
2022/08/12 15:48:43;;;;;;;;;;;;;;;;;;5067318;28;20003;-75
2022/08/12 15:51:09;;;;;;;;;;;;;;;;;;5068800;28;19932;-76
2022/08/12 15:56:22;;;;;;;;;;;;;;;;;;5066576;28;19948;-75
2022/08/12 15:58:48;;;;;;;;;;;;;;;;;;5059712;28;19925;-75
2022/08/12 16:01:15;;;;;;;;;;;;;;;;;;5064736;28;19972;-76
2022/08/12 16:03:42;;;;;;;;;;;;;;;;;;5059371;28;19928;-76
2022/08/12 16:06:09;;;;;;;;;;;;;;;;;;5062306;28;20497;-76
2022/08/12 16:08:40;;;;;;;;;;;;;;;;;;5061594;28;19967;-76
2022/08/12 16:11:06;;;;;;;;;;;;;;;;;;5053086;28;20419;-75
2022/08/12 16:13:34;;;;;;;;;;;;;;;;;;5054378;28;19999;-76
2022/08/12 16:16:02;;;;;;;;;;;;;;;;;;5062659;28;19979;-81
2022/08/12 16:18:28;;;;;;;;;;;;;;;;;;5052591;28;19924;-77
2022/08/12 16:20:55;;;;;;;;;;;;;;;;;;5053311;28;19925;-75
2022/08/12 16:23:21;;;;;;;;;;;;;;;;;;5060664;28;19924;-78
2022/08/12 16:25:48;;;;;;;;;;;;;;;;;;5065269;28;19928;-75
2022/08/12 16:28:14;;;;;;;;;;;;;;;;;;5059803;28;19924;-76
2022/08/12 16:30:43;;;;;;;;;;;;;;;;;;5062391;28;20372;-76
2022/08/12 16:33:12;;;;;;;;;;;;;;;;;;5049530;28;19982;-75
2022/08/12 16:35:39;;;;;;;;;;;;;;;;;;5054729;28;20047;-74
2022/08/12 16:38:06;;;;;;;;;;;;;;;;;;5067220;28;19925;-77
2022/08/12 16:40:33;;;;;;;;;;;;;;;;;;5069849;28;20019;-75
2022/08/12 16:43:00;;;;;;;;;;;;;;;;;;5071197;28;19934;-75
2022/08/12 16:45:26;;;;;;;;;;;;;;;;;;5065304;28;20405;-74
2022/08/12 16:47:54;;;;;;;;;;;;;;;;;;5071895;28;19931;-76
2022/08/12 16:50:21;;;;;;;;;;;;;;;;;;5065166;28;19925;-77
2022/08/12 16:52:48;;;;;;;;;;;;;;;;;;5071212;28;20017;-76
2022/08/12 16:55:14;;;;;;;;;;;;;;;;;;5062864;28;19924;-74
2022/08/12 16:57:41;;;;;;;;;;;;;;;;;;5065307;28;19937;-75
2022/08/12 17:00:10;;;;;;;;;;;;;;;;;;5058066;28;20288;-76
2022/08/12 17:02:38;;;;;;;;;;;;;;;;;;5059819;28;19932;-75
2022/08/12 17:05:13;;;;;;;;;;;;;;;;;;5070449;28;19929;-75
2022/08/12 17:07:40;;;;;;;;;;;;;;;;;;5056054;28;19975;-75
2022/08/12 17:10:08;;;;;;;;;;;;;;;;;;5051787;28;19941;-76
2022/08/12 17:12:34;;;;;;;;;;;;;;;;;;5068806;28;20015;-75
2022/08/12 17:15:01;;;;;;;;;;;;;;;;;;5072891;28;19975;-75
2022/08/12 17:17:32;;;;;;;;;;;;;;;;;;5072761;28;19928;-76
2022/08/12 17:20:02;;;;;;;;;;;;;;;;;;5063832;28;20359;-76
2022/08/12 17:22:31;;;;;;;;;;;;;;;;;;5073073;28;20352;-77
2022/08/12 17:24:57;;;;;;;;;;;;;;;;;;5072842;28;19924;-76
2022/08/12 17:27:24;;;;;;;;;;;;;;;;;;5073038;28;20015;-76
2022/08/12 17:29:54;;;;;;;;;;;;;;;;;;5071685;28;19933;-76
2022/08/12 17:32:21;;;;;;;;;;;;;;;;;;5072554;28;19978;-76
2022/08/12 17:37:33;;;;;;;;;;;;;;;;;;5072910;28;20311;-76
2022/08/12 17:40:00;;;;;;;;;;;;;;;;;;5068622;28;20023;-76
2022/08/12 17:42:27;;;;;;;;;;;;;;;;;;5067835;28;19924;-75
2022/08/12 17:44:59;;;;;;;;;;;;;;;;;;5072998;28;19938;-77
2022/08/12 17:47:26;;;;;;;;;;;;;;;;;;5073073;28;19960;-74
2022/08/12 17:49:52;;;;;;;;;;;;;;;;;;5071949;28;20006;-74
2022/08/12 17:52:21;;;;;;;;;;;;;;;;;;5071934;28;20011;-74
2022/08/12 17:54:49;;;;;;;;;;;;;;;;;;5071152;28;19925;-75
2022/08/12 17:57:19;;;;;;;;;;;;;;;;;;5071875;28;20295;-75
2022/08/12 17:59:46;;;;;;;;;;;;;;;;;;5071504;28;19924;-75
2022/08/12 18:02:13;;;;;;;;;;;;;;;;;;5072371;28;19924;-76
2022/08/12 18:04:42;;;;;;;;;;;;;;;;;;5072023;28;20020;-76
2022/08/12 18:07:09;;;;;;;;;;;;;;;;;;5072956;28;19931;-77
2022/08/12 18:09:36;;;;;;;;;;;;;;;;;;5071631;28;19932;-79
2022/08/12 18:14:55;;;;;;;;;;;;;;;;;;5071828;28;19931;-77
2022/08/12 18:17:24;;;;;;;;;;;;;;;;;;5072111;28;19924;-75
2022/08/12 18:19:50;;;;;;;;;;;;;;;;;;5071008;28;19924;-74
2022/08/12 18:22:17;;;;;;;;;;;;;;;;;;5071684;28;19972;-75
2022/08/12 18:24:44;;;;;;;;;;;;;;;;;;5071359;28;20418;-76
2022/08/12 18:27:12;;;;;;;;;;;;;;;;;;5071439;28;20019;-76
2022/08/12 18:29:39;;;;;;;;;;;;;;;;;;5070925;28;20657;-77
2022/08/12 18:32:06;;;;;;;;;;;;;;;;;;5067851;28;20032;-80
2022/08/12 18:34:33;;;;;;;;;;;;;;;;;;5053517;28;20019;-80
2022/08/12 18:37:00;;;;;;;;;;;;;;;;;;5056571;28;19983;-81
2022/08/12 18:41:27;;;;;;;;;;;;;;;;;;5054721;28;20507;-77
2022/08/12 18:42:14;;;;;;;;;;;;;;;;;;5051442;28;20008;-74
2022/08/12 18:44:41;;;;;;;;;;;;;;;;;;5051597;28;19925;-76
2022/08/12 18:47:09;;;;;;;;;;;;;;;;;;5051150;28;20023;-76